X  Close Metar Aviation Weather Data     KMDT Harrisburg International Airport
Temperature
45°F Temperature
41°F Dewpoint
87% Humidity



Wind
5 MPH
8 KM/H
2 M/S
4 KTS



110°
ESE
Current Conditions

Mostly Scattered Clouds Mostly Scattered Clouds
Pressure 1005.12 (hPa) - 29.68 (inHg)
Visibility 9.9 (mile) - 16 (km)
Airport
Airport-code KMDT

Location: Harrisburg International Airport
Distance: 31 (mi)

Metar:
KMDT 260956Z 11004KT 10SM SCT040 BKN065 OVC080 07/05 A2968 RMK AO2 SLP052 T00720050

Time: 11-26-2021 04:56 EST